Time;durP1;ratioP1;P1;durP2;ratioP2;P2;SDS_P1;SDS_P2;PMS_P1;PMS_P2;Temp;Humidity;BMP_temperature;BMP_pressure;BME280_temperature;BME280_humidity;BME280_pressure;Samples;Min_cycle;Max_cycle;Signal;HPM_P1;HPM_P2
2023/11/27 00:01:24;;;;;;;5.63;5.13;;;3.00;72.20;;;;;;5086171;28;20043;-73
2023/11/27 00:03:52;;;;;;;6.25;5.65;;;3.00;74.20;;;;;;5088825;28;20488;-76
2023/11/27 00:06:19;;;;;;;7.10;6.40;;;2.80;75.40;;;;;;5083350;28;20037;-72
2023/11/27 00:08:47;;;;;;;7.95;6.35;;;2.80;78.00;;;;;;5085656;28;20040;-75
2023/11/27 00:11:14;;;;;;;9.30;7.00;;;2.80;77.90;;;;;;5087974;28;20056;-71
2023/11/27 00:13:42;;;;;;;8.50;7.30;;;2.90;78.50;;;;;;5089907;28;20114;-72
2023/11/27 00:16:09;;;;;;;8.60;7.32;;;2.90;79.10;;;;;;5087336;28;20146;-74
2023/11/27 00:18:38;;;;;;;8.02;6.80;;;2.70;79.20;;;;;;5079188;28;20051;-71
2023/11/27 00:21:05;;;;;;;8.38;6.80;;;2.50;80.60;;;;;;5085207;28;20031;-73
2023/11/27 00:23:33;;;;;;;8.38;7.35;;;2.40;81.10;;;;;;5082256;28;20059;-73
2023/11/27 00:26:00;;;;;;;7.53;6.68;;;2.40;82.20;;;;;;5084207;28;20405;-74
2023/11/27 00:28:27;;;;;;;8.13;7.05;;;2.40;82.40;;;;;;5082738;28;20116;-74
2023/11/27 00:30:55;;;;;;;9.77;7.22;;;2.40;82.50;;;;;;5071052;28;20139;-72
2023/11/27 00:33:22;;;;;;;8.75;6.88;;;2.40;82.70;;;;;;5087389;28;20020;-75
2023/11/27 00:35:50;;;;;;;8.20;6.45;;;2.50;82.90;;;;;;5078722;28;20387;-74
2023/11/27 00:38:17;;;;;;;8.18;6.70;;;2.50;83.00;;;;;;5079885;28;20044;-74
2023/11/27 00:40:46;;;;;;;9.85;6.50;;;2.60;82.60;;;;;;5081173;28;20105;-72
2023/11/27 00:43:13;;;;;;;9.10;6.55;;;2.60;82.10;;;;;;5086021;28;20130;-75
2023/11/27 00:45:41;;;;;;;9.70;6.32;;;2.50;82.10;;;;;;5086978;28;20041;-76
2023/11/27 00:48:08;;;;;;;9.40;6.90;;;2.40;82.60;;;;;;5086210;28;20040;-73
2023/11/27 00:50:35;;;;;;;8.82;7.20;;;2.30;83.50;;;;;;5069470;28;20553;-74
2023/11/27 00:53:03;;;;;;;8.23;6.78;;;2.30;83.30;;;;;;5079321;28;20078;-74
2023/11/27 00:55:30;;;;;;;8.60;6.78;;;2.30;83.70;;;;;;5084568;28;20083;-73
2023/11/27 00:57:58;;;;;;;7.57;6.68;;;2.30;84.70;;;;;;5083043;28;20068;-75
2023/11/27 01:00:25;;;;;;;8.15;6.93;;;2.30;85.70;;;;;;5082300;28;20043;-73
2023/11/27 01:02:53;;;;;;;10.07;7.68;;;2.20;86.10;;;;;;5086169;28;20043;-77
2023/11/27 01:05:21;;;;;;;8.07;7.28;;;2.10;87.60;;;;;;5085850;28;20093;-75
2023/11/27 01:07:48;;;;;;;10.57;7.47;;;1.90;88.40;;;;;;5082824;28;20041;-76
2023/11/27 01:10:17;;;;;;;8.55;7.03;;;1.90;88.80;;;;;;5088280;28;20039;-75
2023/11/27 01:12:44;;;;;;;10.82;6.97;;;2.00;87.80;;;;;;5089624;28;20042;-72
2023/11/27 01:15:16;;;;;;;10.23;7.72;;;2.10;87.00;;;;;;5088914;28;20036;-80
2023/11/27 01:17:43;;;;;;;9.25;7.10;;;1.90;88.00;;;;;;5082125;28;20068;-74
2023/11/27 01:20:11;;;;;;;9.82;7.38;;;1.80;89.30;;;;;;5083347;28;20375;-73
2023/11/27 01:22:38;;;;;;;12.10;8.20;;;1.80;88.50;;;;;;5083515;28;20044;-76
2023/11/27 01:25:06;;;;;;;12.63;8.63;;;1.90;86.90;;;;;;5083192;28;20060;-78
2023/11/27 01:27:34;;;;;;;11.68;8.30;;;2.00;86.10;;;;;;5083049;28;20429;-70
2023/11/27 01:30:03;;;;;;;11.32;8.48;;;2.00;85.90;;;;;;5083929;28;20032;-73
2023/11/27 01:32:30;;;;;;;12.30;8.77;;;1.90;86.50;;;;;;5081295;28;20418;-73
2023/11/27 01:34:58;;;;;;;13.43;8.50;;;1.90;86.50;;;;;;5076306;28;20426;-72
2023/11/27 01:37:25;;;;;;;12.60;8.30;;;1.80;87.10;;;;;;5066139;28;20177;-71
2023/11/27 01:39:52;;;;;;;10.48;8.32;;;1.90;87.20;;;;;;5080333;28;20124;-71
2023/11/27 01:42:20;;;;;;;10.52;8.45;;;1.90;87.60;;;;;;5076380;28;20375;-70
2023/11/27 01:44:47;;;;;;;9.02;7.85;;;1.90;87.90;;;;;;5081660;28;20449;-70
2023/11/27 01:47:15;;;;;;;10.55;7.60;;;1.90;87.60;;;;;;5080372;28;20035;-70
2023/11/27 01:49:44;;;;;;;9.65;7.30;;;1.80;86.90;;;;;;5080912;28;20032;-71
2023/11/27 01:52:15;;;;;;;8.88;7.40;;;1.80;86.80;;;;;;5078314;28;20122;-72
2023/11/27 01:54:43;;;;;;;8.23;7.22;;;1.70;87.20;;;;;;5083948;28;20036;-71
2023/11/27 01:57:15;;;;;;;9.30;7.68;;;1.60;88.00;;;;;;5077487;28;20497;-71
2023/11/27 01:59:46;;;;;;;11.23;7.88;;;1.50;89.10;;;;;;5082032;28;20068;-71
2023/11/27 02:02:15;;;;;;;12.27;6.97;;;1.40;90.00;;;;;;5083992;28;20094;-71
2023/11/27 02:04:43;;;;;;;8.75;6.57;;;1.30;90.30;;;;;;5079479;28;20523;-71
2023/11/27 02:07:13;;;;;;;7.03;6.25;;;1.30;90.50;;;;;;5066196;28;20142;-69
2023/11/27 02:09:40;;;;;;;8.45;6.80;;;1.40;90.40;;;;;;5078598;28;20050;-70
2023/11/27 02:12:08;;;;;;;7.43;6.40;;;1.30;90.30;;;;;;5081836;28;20107;-71
2023/11/27 02:14:35;;;;;;;7.45;6.40;;;1.20;90.50;;;;;;5080253;28;20084;-72
2023/11/27 02:17:03;;;;;;;9.02;5.93;;;1.10;90.60;;;;;;5080710;28;20043;-71
2023/11/27 02:19:30;;;;;;;7.00;6.30;;;0.80;91.20;;;;;;5080657;28;20044;-72
2023/11/27 02:21:57;;;;;;;6.93;6.00;;;0.70;91.50;;;;;;5080522;28;20438;-73
2023/11/27 02:24:24;;;;;;;7.88;6.10;;;0.80;91.50;;;;;;5077729;28;20429;-70
2023/11/27 02:26:52;;;;;;;9.15;6.60;;;0.80;91.30;;;;;;5091280;28;20042;-72
2023/11/27 02:29:19;;;;;;;8.63;7.00;;;0.70;91.60;;;;;;5082126;28;20051;-77
2023/11/27 02:31:47;;;;;;;6.97;6.28;;;0.60;91.70;;;;;;5085609;28;20484;-75
2023/11/27 02:34:17;;;;;;;7.45;6.38;;;0.50;91.90;;;;;;5085526;28;20067;-75
2023/11/27 02:36:44;;;;;;;8.43;6.45;;;0.50;91.90;;;;;;5086698;28;20486;-73
2023/11/27 02:39:14;;;;;;;6.82;6.18;;;0.50;91.90;;;;;;5085704;28;20407;-75
2023/11/27 02:41:42;;;;;;;6.90;6.03;;;0.50;91.70;;;;;;5083314;28;20033;-72
2023/11/27 02:44:09;;;;;;;8.02;6.30;;;0.60;91.20;;;;;;5083114;28;20044;-71
2023/11/27 02:46:37;;;;;;;6.53;5.93;;;0.50;91.10;;;;;;5081463;28;20094;-77
2023/11/27 02:49:05;;;;;;;6.68;6.07;;;0.50;91.00;;;;;;5083935;28;20043;-73
2023/11/27 02:51:39;;;;;;;7.05;6.35;;;0.40;90.70;;;;;;5085393;28;20048;-80
2023/11/27 02:54:07;;;;;;;6.93;6.28;;;0.30;91.30;;;;;;5084079;28;20048;-76
2023/11/27 02:56:34;;;;;;;7.80;6.10;;;0.40;91.10;;;;;;5080893;28;20588;-73
2023/11/27 02:59:02;;;;;;;17.50;6.72;;;0.40;91.00;;;;;;5083957;28;20043;-74
2023/11/27 03:01:29;;;;;;;11.35;6.50;;;0.30;91.20;;;;;;5086752;28;20123;-74
2023/11/27 03:03:57;;;;;;;6.50;5.90;;;0.30;91.40;;;;;;5085018;28;20028;-71
2023/11/27 03:06:24;;;;;;;7.30;6.22;;;0.30;91.20;;;;;;5084767;28;20052;-70
2023/11/27 03:08:52;;;;;;;7.47;5.90;;;0.30;90.70;;;;;;5084552;28;20371;-72
2023/11/27 03:11:20;;;;;;;6.53;5.90;;;0.30;90.40;;;;;;5063530;28;20475;-75
2023/11/27 03:13:47;;;;;;;6.85;5.68;;;0.30;90.70;;;;;;5085326;28;20051;-76
2023/11/27 03:16:14;;;;;;;6.40;5.80;;;0.30;90.10;;;;;;5084549;28;20045;-72
2023/11/27 03:18:42;;;;;;;6.32;5.72;;;0.30;90.00;;;;;;5084423;28;20036;-72
2023/11/27 03:21:22;;;;;;;6.60;5.57;;;0.20;90.10;;;;;;5083636;28;20048;-71
2023/11/27 03:23:49;;;;;;;6.80;5.60;;;0.30;90.40;;;;;;5091106;28;20040;-71
2023/11/27 03:26:18;;;;;;;6.07;5.47;;;0.30;90.30;;;;;;5082844;28;20036;-71
2023/11/27 03:28:45;;;;;;;6.68;5.90;;;0.30;90.10;;;;;;5085985;28;20036;-69
2023/11/27 03:31:13;;;;;;;6.57;5.90;;;0.30;90.30;;;;;;5084337;28;20036;-69
2023/11/27 03:33:40;;;;;;;6.10;5.50;;;0.10;91.00;;;;;;5082168;28;20624;-81
2023/11/27 03:36:08;;;;;;;6.50;5.80;;;0.10;90.90;;;;;;5084671;28;20676;-72
2023/11/27 03:38:35;;;;;;;6.70;5.72;;;0.10;91.10;;;;;;5081422;28;20046;-71
2023/11/27 03:41:03;;;;;;;6.22;5.63;;;0.10;91.10;;;;;;5087300;28;20087;-73
2023/11/27 03:43:32;;;;;;;6.60;5.60;;;0.20;91.20;;;;;;5083513;28;20135;-71
2023/11/27 03:46:00;;;;;;;6.88;5.80;;;0.20;91.20;;;;;;5079599;28;20113;-71
2023/11/27 03:48:27;;;;;;;8.88;6.18;;;0.20;91.20;;;;;;5082901;28;20032;-78
2023/11/27 03:50:55;;;;;;;6.82;5.90;;;0.30;91.00;;;;;;5081223;28;20060;-73
2023/11/27 03:53:22;;;;;;;7.28;6.15;;;0.20;91.00;;;;;;5083867;28;20107;-72
2023/11/27 03:55:49;;;;;;;6.68;5.97;;;0.10;91.20;;;;;;5081121;28;20052;-75
2023/11/27 03:58:17;;;;;;;6.63;6.03;;;0.00;91.60;;;;;;5082710;28;20139;-73
2023/11/27 04:00:44;;;;;;;6.75;5.88;;;-0.10;92.00;;;;;;5085085;28;20437;-73
2023/11/27 04:03:12;;;;;;;6.40;5.80;;;-0.10;92.10;;;;;;5068223;28;20359;-73
2023/11/27 04:05:40;;;;;;;6.75;6.15;;;0.00;92.50;;;;;;5086057;28;20420;-73
2023/11/27 04:08:08;;;;;;;6.90;6.20;;;-0.10;92.20;;;;;;5079915;28;20476;-73
2023/11/27 04:10:35;;;;;;;7.03;6.18;;;-0.10;92.50;;;;;;5082801;28;20102;-74
2023/11/27 04:13:02;;;;;;;6.60;5.90;;;0.10;92.20;;;;;;5080065;28;20106;-80
2023/11/27 04:15:29;;;;;;;6.80;6.20;;;-0.20;92.00;;;;;;5083865;28;20063;-79
2023/11/27 04:17:57;;;;;;;6.72;6.00;;;-0.10;92.10;;;;;;5082949;28;20446;-72
2023/11/27 04:20:24;;;;;;;6.63;6.03;;;0.00;92.40;;;;;;5083440;28;20041;-75
2023/11/27 04:22:52;;;;;;;6.30;5.70;;;-0.10;92.20;;;;;;5081077;28;20043;-74
2023/11/27 04:25:20;;;;;;;6.65;5.95;;;-0.10;92.10;;;;;;5086720;28;20040;-75
2023/11/27 04:27:48;;;;;;;7.32;6.63;;;0.00;91.90;;;;;;5084449;28;20036;-75
2023/11/27 04:30:15;;;;;;;8.00;6.18;;;0.10;92.00;;;;;;5069036;28;20495;-77
2023/11/27 04:32:45;;;;;;;6.50;5.90;;;0.10;92.20;;;;;;5083487;28;20032;-72
2023/11/27 04:35:12;;;;;;;6.57;5.95;;;0.10;92.10;;;;;;5082169;28;20048;-75
2023/11/27 04:37:40;;;;;;;7.82;5.80;;;0.10;91.90;;;;;;5084661;28;20150;-73
2023/11/27 04:40:10;;;;;;;6.55;5.93;;;-0.10;92.10;;;;;;5084604;28;20111;-71
2023/11/27 04:42:38;;;;;;;7.45;6.10;;;-0.10;92.40;;;;;;5083573;28;20523;-70
2023/11/27 04:45:09;;;;;;;6.53;5.93;;;0.00;92.50;;;;;;5081285;28;20087;-72
2023/11/27 04:47:36;;;;;;;7.57;6.15;;;0.00;92.80;;;;;;5083044;28;20031;-72
2023/11/27 04:50:04;;;;;;;6.97;6.15;;;0.00;92.80;;;;;;5084756;28;20085;-74
2023/11/27 04:52:31;;;;;;;7.90;6.20;;;0.00;92.60;;;;;;5078830;28;20037;-74
2023/11/27 04:54:58;;;;;;;6.65;6.05;;;0.00;92.80;;;;;;5077910;28;20414;-70
2023/11/27 04:57:26;;;;;;;8.55;6.05;;;0.00;93.20;;;;;;5085767;28;20028;-70
2023/11/27 04:59:53;;;;;;;7.40;6.55;;;-0.10;93.80;;;;;;5081787;28;20113;-71
2023/11/27 05:02:20;;;;;;;7.10;6.38;;;-0.20;94.00;;;;;;5084673;28;20044;-72
2023/11/27 05:04:47;;;;;;;7.07;6.32;;;-0.10;94.00;;;;;;5082300;28;20408;-71
2023/11/27 05:07:15;;;;;;;6.85;6.20;;;-0.10;94.00;;;;;;5082438;28;20028;-72
2023/11/27 05:09:42;;;;;;;7.25;6.15;;;-0.10;93.90;;;;;;5080405;28;20077;-72
2023/11/27 05:12:09;;;;;;;8.13;6.75;;;-0.20;94.00;;;;;;5076870;28;20055;-71
2023/11/27 05:14:50;;;;;;;8.07;6.90;;;-0.10;94.00;;;;;;5083430;28;20047;-73
2023/11/27 05:17:17;;;;;;;6.85;6.15;;;-0.20;94.20;;;;;;5083637;28;20471;-74
2023/11/27 05:19:44;;;;;;;7.22;6.50;;;-0.30;94.40;;;;;;5081869;28;20032;-73
2023/11/27 05:22:12;;;;;;;8.98;6.65;;;-0.20;94.40;;;;;;5080177;28;20103;-71
2023/11/27 05:24:39;;;;;;;10.82;7.40;;;-0.20;94.20;;;;;;5084611;28;20383;-71
2023/11/27 05:27:06;;;;;;;11.63;7.70;;;-0.20;94.20;;;;;;5079825;28;20032;-73
2023/11/27 05:29:34;;;;;;;8.75;7.20;;;-0.10;94.20;;;;;;5082132;28;20128;-73
2023/11/27 05:32:07;;;;;;;8.02;7.10;;;0.00;94.20;;;;;;5084586;28;20375;-74
2023/11/27 05:34:36;;;;;;;7.90;7.00;;;-0.10;94.10;;;;;;5085715;28;20357;-73
2023/11/27 05:37:09;;;;;;;7.75;6.95;;;-0.20;94.50;;;;;;5082492;28;20374;-76
2023/11/27 05:39:37;;;;;;;8.43;6.85;;;-0.30;94.60;;;;;;5085077;28;20032;-74
2023/11/27 05:42:05;;;;;;;10.88;6.82;;;-0.30;94.80;;;;;;5079939;28;20032;-78
2023/11/27 05:44:32;;;;;;;7.30;6.60;;;-0.30;95.00;;;;;;5065728;28;20434;-73
2023/11/27 05:47:00;;;;;;;9.02;6.80;;;-0.40;95.20;;;;;;5081366;28;20035;-72
2023/11/27 05:49:30;;;;;;;7.65;6.85;;;-0.40;95.50;;;;;;5080390;28;20349;-75
2023/11/27 05:51:58;;;;;;;9.38;7.35;;;-0.60;95.60;;;;;;5079243;28;20032;-71
2023/11/27 05:54:26;;;;;;;32.20;17.77;;;-0.70;96.10;;;;;;5083500;28;20039;-76
2023/11/27 05:56:54;;;;;;;10.05;7.72;;;-0.50;96.90;;;;;;5087990;28;20102;-76
2023/11/27 05:59:22;;;;;;;15.13;11.02;;;-0.50;97.50;;;;;;5084725;28;20117;-81
2023/11/27 06:01:50;;;;;;;11.65;8.27;;;-0.40;98.40;;;;;;5087400;28;20028;-74
2023/11/27 06:04:17;;;;;;;9.32;8.30;;;-0.50;97.50;;;;;;5085016;28;20037;-74
2023/11/27 06:06:45;;;;;;;9.07;7.90;;;-0.40;97.20;;;;;;5088295;28;20032;-75
2023/11/27 06:09:13;;;;;;;14.82;8.13;;;-0.30;97.00;;;;;;5089595;28;20064;-74
2023/11/27 06:11:40;;;;;;;10.35;8.70;;;-0.20;96.90;;;;;;5090494;28;20364;-82
2023/11/27 06:14:08;;;;;;;11.23;8.93;;;-0.30;96.60;;;;;;5091352;28;20024;-73
2023/11/27 06:16:35;;;;;;;14.55;8.88;;;-0.40;96.90;;;;;;5089411;28;20058;-69
2023/11/27 06:19:02;;;;;;;14.55;10.23;;;-0.30;97.00;;;;;;5088804;28;20062;-70
2023/11/27 06:21:32;;;;;;;15.60;10.25;;;-0.30;96.80;;;;;;5084839;28;20444;-74
2023/11/27 06:23:59;;;;;;;14.60;10.07;;;-0.20;96.60;;;;;;5087520;28;20040;-75
2023/11/27 06:26:28;;;;;;;14.07;10.30;;;-0.20;96.40;;;;;;5089534;28;20115;-71
2023/11/27 06:28:55;;;;;;;12.45;9.80;;;0.00;96.30;;;;;;5087838;28;20075;-76
2023/11/27 06:31:22;;;;;;;15.20;8.65;;;0.10;96.30;;;;;;5087027;28;20048;-71
2023/11/27 06:33:51;;;;;;;11.05;8.65;;;0.20;95.90;;;;;;5086383;28;20393;-70
2023/11/27 06:36:18;;;;;;;22.67;8.27;;;0.30;95.70;;;;;;5087632;28;20036;-71
2023/11/27 06:38:45;;;;;;;8.90;7.78;;;0.30;95.40;;;;;;5084078;28;20044;-74
2023/11/27 06:41:13;;;;;;;11.35;7.65;;;0.30;95.10;;;;;;5085381;28;20035;-70
2023/11/27 06:43:41;;;;;;;9.32;6.50;;;0.20;95.20;;;;;;5081482;28;20068;-67
2023/11/27 06:46:11;;;;;;;11.93;7.50;;;0.20;95.20;;;;;;5085753;28;20036;-73
2023/11/27 06:48:39;;;;;;;;;;;0.30;95.40;;;;;;5087362;28;20043;-76
2023/11/27 06:51:09;;;;;;;8.68;7.00;;;0.50;95.30;;;;;;5088523;28;19916;-69
2023/11/27 06:53:37;;;;;;;;;;;0.60;94.90;;;;;;5084589;28;20040;-70
2023/11/27 06:56:05;;;;;;;11.38;7.22;;;0.90;94.70;;;;;;5086044;28;20014;-71
2023/11/27 06:58:33;;;;;;;10.50;7.50;;;1.00;94.40;;;;;;5084087;28;20044;-73
2023/11/27 07:01:01;;;;;;;9.82;7.93;;;1.10;94.10;;;;;;5086226;28;20063;-73
2023/11/27 07:03:29;;;;;;;9.73;7.80;;;1.20;93.70;;;;;;5082650;28;20131;-71
2023/11/27 07:05:57;;;;;;;11.45;7.88;;;1.30;93.60;;;;;;5081413;28;20115;-73
2023/11/27 07:08:24;;;;;;;10.55;8.45;;;1.50;93.70;;;;;;5081937;28;20049;-70
2023/11/27 07:10:52;;;;;;;13.55;7.82;;;1.60;93.80;;;;;;5084092;28;20281;-71
2023/11/27 07:13:23;;;;;;;10.65;8.80;;;1.70;93.40;;;;;;5081018;28;20040;-71
2023/11/27 07:15:51;;;;;;;12.40;8.93;;;1.70;93.30;;;;;;5081727;28;20356;-70
2023/11/27 07:18:18;;;;;;;12.45;9.40;;;1.60;93.10;;;;;;5085545;28;20039;-73
2023/11/27 07:20:50;;;;;;;14.45;9.68;;;1.60;93.40;;;;;;5085601;28;20126;-79
2023/11/27 07:23:18;;;;;;;19.88;10.07;;;1.80;93.40;;;;;;5085030;28;20421;-70
2023/11/27 07:25:46;;;;;;;13.07;10.75;;;2.00;93.10;;;;;;5068817;28;20101;-75
2023/11/27 07:28:13;;;;;;;14.55;10.38;;;1.90;93.00;;;;;;5081306;28;20384;-73
2023/11/27 07:30:40;;;;;;;16.90;10.40;;;2.00;93.50;;;;;;5066179;28;20059;-73
2023/11/27 07:33:26;;;;;;;11.77;8.98;;;2.10;93.00;;;;;;5087995;28;20502;-69
2023/11/27 07:35:53;;;;;;;12.43;9.13;;;2.10;92.60;;;;;;5086725;28;20119;-69
2023/11/27 07:38:21;;;;;;;15.48;10.50;;;2.20;92.50;;;;;;5087377;28;20036;-75
2023/11/27 07:40:48;;;;;;;15.82;11.20;;;2.30;92.60;;;;;;5087413;28;20044;-70
2023/11/27 07:43:15;;;;;;;15.70;11.23;;;2.50;92.60;;;;;;5086576;28;20061;-67
2023/11/27 07:45:43;;;;;;;20.92;13.63;;;2.60;92.40;;;;;;5085099;28;20523;-70
2023/11/27 07:48:11;;;;;;;20.85;14.35;;;2.80;93.20;;;;;;5064743;28;20105;-68
2023/11/27 07:50:40;;;;;;;28.70;17.23;;;2.70;92.00;;;;;;5085015;28;20048;-71
2023/11/27 07:53:08;;;;;;;17.98;12.82;;;2.70;92.10;;;;;;5087788;28;20036;-69
2023/11/27 07:55:35;;;;;;;20.45;13.68;;;2.70;91.90;;;;;;5083960;28;20062;-74
2023/11/27 07:58:03;;;;;;;18.63;11.77;;;2.70;92.10;;;;;;5088189;28;20036;-73
2023/11/27 08:00:31;;;;;;;16.13;11.73;;;2.90;92.60;;;;;;5081585;28;20051;-69
2023/11/27 08:02:58;;;;;;;19.02;12.55;;;3.00;91.90;;;;;;5084208;28;20039;-80
2023/11/27 08:05:27;;;;;;;18.58;12.07;;;3.10;92.00;;;;;;5079390;28;20028;-72
2023/11/27 08:07:55;;;;;;;16.20;11.02;;;3.10;91.80;;;;;;5070673;28;20072;-69
2023/11/27 08:10:23;;;;;;;18.25;12.65;;;3.30;91.70;;;;;;5087747;28;20032;-70
2023/11/27 08:12:52;;;;;;;16.38;11.23;;;3.60;91.70;;;;;;5069417;28;20039;-71
2023/11/27 08:15:19;;;;;;;19.35;12.65;;;3.70;90.70;;;;;;5086945;28;20534;-69
2023/11/27 08:17:49;;;;;;;18.95;12.23;;;3.80;91.00;;;;;;5081261;28;20032;-71
2023/11/27 08:20:17;;;;;;;19.27;13.27;;;3.90;90.60;;;;;;5083571;28;20039;-71
2023/11/27 08:22:45;;;;;;;16.65;12.40;;;4.00;90.50;;;;;;5083656;28;20035;-76
2023/11/27 08:25:16;;;;;;;16.45;11.27;;;4.20;90.30;;;;;;5082378;28;20109;-72
2023/11/27 08:27:46;;;;;;;16.23;11.27;;;3.90;89.00;;;;;;5083887;28;20119;-71
2023/11/27 08:30:14;;;;;;;15.27;10.98;;;4.10;89.30;;;;;;5083488;28;20032;-75
2023/11/27 08:32:42;;;;;;;20.58;12.27;;;3.70;89.80;;;;;;5085838;28;20024;-69
2023/11/27 08:35:11;;;;;;;16.25;11.18;;;3.80;90.00;;;;;;5085767;28;20035;-68
2023/11/27 08:37:39;;;;;;;21.23;11.23;;;3.50;89.20;;;;;;5082820;28;20032;-71
2023/11/27 08:40:09;;;;;;;17.00;10.90;;;3.80;90.20;;;;;;5078804;28;20064;-73
2023/11/27 08:42:38;;;;;;;17.42;11.18;;;3.80;90.00;;;;;;5072893;28;20051;-76
2023/11/27 08:45:17;;;;;;;23.23;12.23;;;4.30;88.30;;;;;;5082310;28;20152;-67
2023/11/27 08:47:50;;;;;;;19.58;11.73;;;4.80;87.40;;;;;;5087441;28;20513;-72
2023/11/27 08:50:24;;;;;;;21.73;12.48;;;5.20;86.30;;;;;;5086653;28;20039;-71
2023/11/27 08:52:57;;;;;;;22.48;12.52;;;5.40;85.20;;;;;;5080853;28;20032;-74
2023/11/27 08:55:30;;;;;;;20.88;11.85;;;5.20;84.90;;;;;;5080262;28;20028;-71
2023/11/27 08:58:03;;;;;;;28.40;12.70;;;5.30;85.60;;;;;;5083138;28;20059;-73
2023/11/27 09:00:31;;;;;;;28.88;14.35;;;5.60;84.40;;;;;;5081240;28;20040;-75
2023/11/27 09:02:59;;;;;;;37.75;18.95;;;5.70;82.80;;;;;;5086775;28;20412;-68
2023/11/27 09:05:31;;;;;;;30.67;15.05;;;5.90;83.90;;;;;;5082348;28;20036;-70
2023/11/27 09:08:04;;;;;;;35.95;15.52;;;6.20;82.60;;;;;;5079475;28;20043;-72
2023/11/27 09:10:35;;;;;;;30.65;14.45;;;6.20;82.10;;;;;;5081855;28;20036;-71
2023/11/27 09:13:05;;;;;;;36.78;13.80;;;6.30;81.20;;;;;;5079535;28;20040;-73
2023/11/27 09:15:34;;;;;;;24.92;14.13;;;6.40;80.50;;;;;;5079376;28;20063;-74
2023/11/27 09:18:01;;;;;;;21.73;12.48;;;6.80;84.30;;;;;;5083975;28;20456;-68
2023/11/27 09:20:29;;;;;;;24.95;12.52;;;6.80;79.90;;;;;;5082572;28;20048;-73
2023/11/27 09:22:57;;;;;;;25.20;12.52;;;6.90;77.70;;;;;;5085425;28;20036;-69
2023/11/27 09:25:25;;;;;;;25.20;12.35;;;7.00;78.60;;;;;;5084505;28;20040;-72
2023/11/27 09:27:52;;;;;;;28.65;13.73;;;7.00;76.40;;;;;;5083451;28;20032;-70
2023/11/27 09:30:20;;;;;;;19.75;11.23;;;6.60;76.80;;;;;;5088917;28;20370;-75
2023/11/27 09:32:48;;;;;;;23.45;11.43;;;7.00;76.50;;;;;;5088399;28;20032;-71
2023/11/27 09:35:16;;;;;;;19.85;11.23;;;7.30;75.00;;;;;;5087217;28;20092;-70
2023/11/27 09:37:43;;;;;;;15.07;9.50;;;7.50;74.70;;;;;;5084680;28;20039;-72
2023/11/27 09:40:12;;;;;;;15.27;9.00;;;7.70;73.30;;;;;;5088363;28;20750;-74
2023/11/27 09:42:41;;;;;;;15.10;8.48;;;7.50;71.60;;;;;;5084673;28;20113;-69
2023/11/27 09:45:16;;;;;;;15.77;8.52;;;7.50;72.20;;;;;;5088998;28;20055;-70
2023/11/27 09:47:48;;;;;;;17.05;8.23;;;7.70;71.40;;;;;;5083661;28;20046;-71
2023/11/27 09:50:18;;;;;;;11.30;7.30;;;7.80;70.50;;;;;;5085912;28;20028;-70
2023/11/27 09:52:52;;;;;;;11.75;7.00;;;7.50;70.00;;;;;;5083658;28;20036;-77
2023/11/27 09:55:20;;;;;;;11.80;7.07;;;7.60;70.10;;;;;;5083998;28;20127;-75
2023/11/27 09:57:49;;;;;;;9.55;6.28;;;8.10;75.90;;;;;;5084923;28;20056;-71
2023/11/27 10:00:21;;;;;;;9.80;5.82;;;8.50;69.20;;;;;;5086830;28;20124;-72
2023/11/27 10:02:49;;;;;;;12.50;6.18;;;8.80;67.40;;;;;;5066782;28;20075;-73
2023/11/27 10:05:18;;;;;;;9.15;5.90;;;8.90;66.70;;;;;;5083485;28;20557;-70
2023/11/27 10:07:46;;;;;;;6.72;5.20;;;8.90;65.30;;;;;;5083018;28;20028;-72
2023/11/27 10:10:33;;;;;;;8.02;5.95;;;8.80;64.90;;;;;;5087528;28;20036;-78
2023/11/27 10:13:06;;;;;;;10.98;7.97;;;8.80;65.50;;;;;;5084150;28;20380;-78
2023/11/27 10:15:48;;;;;;;12.18;6.70;;;9.20;65.90;;;;;;5081830;28;20321;-75
2023/11/27 10:18:19;;;;;;;8.30;5.00;;;9.10;64.90;;;;;;5087823;28;20035;-78
2023/11/27 10:20:49;;;;;;;6.13;4.95;;;8.40;63.90;;;;;;5086642;28;20374;-72
2023/11/27 10:23:17;;;;;;;5.70;5.10;;;8.70;63.90;;;;;;5086511;28;20372;-73
2023/11/27 10:25:45;;;;;;;8.02;5.07;;;9.00;63.30;;;;;;5082632;28;20051;-70
2023/11/27 10:28:12;;;;;;;8.57;5.57;;;9.00;63.00;;;;;;5084018;28;20097;-70
2023/11/27 10:30:47;;;;;;;10.90;6.07;;;9.20;63.50;;;;;;5086331;28;20384;-67
2023/11/27 10:33:15;;;;;;;8.35;6.50;;;9.30;62.80;;;;;;5084467;28;20036;-71
2023/11/27 10:35:42;;;;;;;8.05;5.43;;;9.70;62.70;;;;;;5079537;28;20665;-68
2023/11/27 10:38:16;;;;;;;10.15;5.63;;;10.00;61.80;;;;;;5080664;28;20098;-71
2023/11/27 10:40:45;;;;;;;9.40;5.47;;;10.10;60.70;;;;;;5088402;28;20049;-71
2023/11/27 10:43:14;;;;;;;9.45;5.40;;;10.40;59.90;;;;;;5083105;28;20128;-71
2023/11/27 10:45:44;;;;;;;11.15;5.85;;;10.70;60.00;;;;;;5086282;28;20043;-74
2023/11/27 10:48:13;;;;;;;8.02;5.43;;;12.20;59.10;;;;;;5088227;28;20036;-70
2023/11/27 10:50:45;;;;;;;;;;;16.90;55.00;;;;;;5091098;28;20043;-74
2023/11/27 10:53:19;;;;;;;;;;;20.50;47.20;;;;;;5091729;28;19919;-71
2023/11/27 10:55:48;;;;;;;6.93;4.43;;;21.70;42.90;;;;;;5088271;28;19962;-73
2023/11/27 10:58:17;;;;;;;8.88;4.57;;;22.40;40.70;;;;;;5092496;28;20793;-70
2023/11/27 11:00:56;;;;;;;8.23;4.22;;;23.40;39.20;;;;;;5088176;28;20039;-75
2023/11/27 11:03:26;;;;;;;8.98;4.80;;;23.90;38.00;;;;;;5080982;28;20515;-72
2023/11/27 11:05:56;;;;;;;9.02;4.88;;;24.20;37.10;;;;;;5085634;28;20173;-74
2023/11/27 11:08:26;;;;;;;11.90;5.53;;;24.00;39.30;;;;;;5089858;28;20138;-73
2023/11/27 11:10:56;;;;;;;8.43;5.10;;;24.60;40.40;;;;;;5085074;28;20036;-71
2023/11/27 11:13:25;;;;;;;8.98;5.15;;;25.00;40.80;;;;;;5087233;28;20040;-74
2023/11/27 11:15:54;;;;;;;10.10;5.20;;;25.00;38.50;;;;;;5089391;28;20075;-78
2023/11/27 11:18:58;;;;;;;8.77;4.80;;;24.50;38.50;;;;;;5087468;28;20103;-74
2023/11/27 11:21:28;;;;;;;9.10;5.28;;;24.30;38.30;;;;;;5084287;28;20044;-74
2023/11/27 11:24:12;;;;;;;12.85;6.03;;;24.00;39.20;;;;;;5088715;28;20028;-73
2023/11/27 11:26:48;;;;;;;9.15;4.90;;;25.00;38.60;;;;;;5087140;28;20043;-72
2023/11/27 11:29:28;;;;;;;9.25;5.57;;;24.30;34.90;;;;;;5085305;28;20032;-74
2023/11/27 11:32:06;;;;;;;9.10;5.50;;;23.90;38.50;;;;;;5088711;28;20089;-73
2023/11/27 11:34:38;;;;;;;14.32;6.22;;;24.90;37.70;;;;;;5078261;28;20442;-76
2023/11/27 11:37:07;;;;;;;9.95;5.45;;;23.30;37.00;;;;;;5090113;28;20035;-74
2023/11/27 11:39:36;;;;;;;10.80;6.50;;;21.80;38.20;;;;;;5088156;28;20541;-73
2023/11/27 11:42:13;;;;;;;9.93;5.80;;;21.50;40.10;;;;;;5085664;28;20068;-76
2023/11/27 11:44:41;;;;;;;9.35;5.05;;;19.10;40.90;;;;;;5082986;28;20124;-75
2023/11/27 11:47:33;;;;;;;9.32;5.40;;;16.00;43.80;;;;;;5086747;28;20402;-79
2023/11/27 11:50:24;;;;;;;9.65;5.45;;;14.20;46.40;;;;;;5069224;28;20047;-73
2023/11/27 11:53:13;;;;;;;8.80;5.22;;;13.80;47.70;;;;;;5086085;28;20048;-74
2023/11/27 11:55:41;;;;;;;11.43;5.93;;;13.70;48.90;;;;;;5072699;28;20552;-74
2023/11/27 11:58:28;;;;;;;11.32;7.20;;;14.10;52.00;;;;;;5088583;28;20123;-77
2023/11/27 12:01:01;;;;;;;10.60;6.15;;;14.50;47.20;;;;;;5082546;28;20036;-76
2023/11/27 12:03:36;;;;;;;10.32;6.20;;;13.90;50.60;;;;;;5082194;28;20505;-75
2023/11/27 12:06:13;;;;;;;9.50;5.88;;;13.80;49.40;;;;;;5079755;28;20035;-79
2023/11/27 12:08:45;;;;;;;10.32;6.10;;;14.00;49.10;;;;;;5076983;28;20097;-74
2023/11/27 12:11:14;;;;;;;8.43;5.80;;;14.80;47.20;;;;;;5078054;28;20106;-74
2023/11/27 12:13:43;;;;;;;11.88;6.15;;;14.70;48.10;;;;;;5081953;28;20036;-75
2023/11/27 12:16:11;;;;;;;11.63;5.35;;;16.00;45.80;;;;;;5079988;28;20024;-76
2023/11/27 12:18:47;;;;;;;8.40;4.78;;;19.80;43.00;;;;;;5078808;28;20037;-75
2023/11/27 12:21:23;;;;;;;8.82;6.10;;;22.20;39.80;;;;;;5084878;28;20390;-73
2023/11/27 12:23:53;;;;;;;8.77;5.25;;;23.90;37.80;;;;;;5081808;28;20033;-75
2023/11/27 12:26:24;;;;;;;8.48;4.93;;;24.40;37.50;;;;;;5088909;28;20040;-74
2023/11/27 12:28:55;;;;;;;8.40;4.85;;;23.50;37.00;;;;;;5085251;28;20524;-77
2023/11/27 12:31:27;;;;;;;8.10;5.15;;;23.30;37.40;;;;;;5082228;28;20028;-80
2023/11/27 12:33:57;;;;;;;8.98;5.43;;;23.70;37.10;;;;;;5080687;28;20040;-74
2023/11/27 12:36:24;;;;;;;9.27;4.35;;;23.50;36.70;;;;;;5083715;28;20036;-77
2023/11/27 12:38:52;;;;;;;10.50;5.90;;;22.80;37.70;;;;;;5084940;28;20043;-77
2023/11/27 12:41:32;;;;;;;9.68;5.20;;;22.20;37.90;;;;;;5084696;28;20036;-76
2023/11/27 12:44:15;;;;;;;10.93;5.72;;;21.70;38.00;;;;;;5086939;28;20387;-76
2023/11/27 12:46:48;;;;;;;9.80;5.60;;;21.70;38.50;;;;;;5081304;28;20438;-77
2023/11/27 12:49:26;;;;;;;12.45;6.95;;;22.00;38.00;;;;;;5083611;28;20024;-76
2023/11/27 12:51:58;;;;;;;11.95;6.93;;;22.20;37.80;;;;;;5083762;28;20032;-74
2023/11/27 12:54:27;;;;;;;14.40;7.50;;;22.30;37.90;;;;;;5083990;28;20403;-75
2023/11/27 12:57:01;;;;;;;;;;;22.20;37.80;;;;;;5084509;28;20036;-73
2023/11/27 12:59:29;;;;;;;11.05;5.78;;;20.10;39.90;;;;;;5080751;28;20298;-77